Pagrindinis puslapis
METAR-TAF:

METAR-TAF

Oro uostai :

Fort Richardson, Aliaska, Jungtinės Amerikos Valstijos

platuma: 61-15-45N, ilguma: 149-39-17W, Aukštis: 115 m

Dabartinis oras

Ataskaita buvo paskelbta 53 minutes, ne 09:58 UTC
Vėjas 5 kt iš Šiaurės/Šiaurės Rytų
Temperatūra -9°C
Drėgmė 62%
Slėgis 999 hPa
Matomumas: 16.1 km
Apsiniaukę ne aukštis 15000 ft

METAR: PAFR 260958Z AUTO 03005KT 10SM OVC150 M09/M15 A2951 RMK AO2 SLP005 T10861146 $

Laikas: 01:51 (10:51 UTC)


TAF: trūkstamas

Orai ataskaitas ir orų prognozės (METAR, TAF).

turimą stotys yra geltonos ir raudonos taškus žemėlapyje.

Perkelti pele per norėdami pamatyti stoties vardą.

Tada spustelėkite, norėdami matyti oro stebėjimo ir prognozės.

Norėdami pakeisti žemėlapį: spustelėkite ant žalios mygtukų su juodo kryžiaus žemyn,; žalią mygtuką su brūkšneliu, jei norite nutolinti; arba žalių rodyklių gretimoms žemėlapius.


METAR-TAF: